sensor_id;sensor_type;location;lat;lon;timestamp;temperature;humidity
22416;DHT22;12204;50.600;4.608;2023-06-14T00:00:05;27.30;42.70
22416;DHT22;12204;50.600;4.608;2023-06-14T00:05:10;27.30;42.80
22416;DHT22;12204;50.600;4.608;2023-06-14T00:10:16;27.30;42.80
22416;DHT22;12204;50.600;4.608;2023-06-14T00:15:20;27.20;42.70
22416;DHT22;12204;50.600;4.608;2023-06-14T00:20:25;27.20;43.00
22416;DHT22;12204;50.600;4.608;2023-06-14T00:25:31;27.20;43.20
22416;DHT22;12204;50.600;4.608;2023-06-14T00:30:35;27.10;43.50
22416;DHT22;12204;50.600;4.608;2023-06-14T00:35:38;27.20;43.70
22416;DHT22;12204;50.600;4.608;2023-06-14T00:40:43;27.10;43.90
22416;DHT22;12204;50.600;4.608;2023-06-14T00:45:48;27.10;44.10
22416;DHT22;12204;50.600;4.608;2023-06-14T00:50:53;27.10;44.10
22416;DHT22;12204;50.600;4.608;2023-06-14T00:55:58;27.00;44.00
22416;DHT22;12204;50.600;4.608;2023-06-14T01:01:02;27.00;44.00
22416;DHT22;12204;50.600;4.608;2023-06-14T01:06:15;27.00;43.90
22416;DHT22;12204;50.600;4.608;2023-06-14T01:11:38;26.90;43.80
22416;DHT22;12204;50.600;4.608;2023-06-14T01:16:48;26.90;43.70
22416;DHT22;12204;50.600;4.608;2023-06-14T01:21:55;26.80;43.60
22416;DHT22;12204;50.600;4.608;2023-06-14T01:27:01;26.80;44.20
22416;DHT22;12204;50.600;4.608;2023-06-14T01:32:07;26.80;43.70
22416;DHT22;12204;50.600;4.608;2023-06-14T01:37:12;26.80;43.80
22416;DHT22;12204;50.600;4.608;2023-06-14T01:42:18;26.70;43.90
22416;DHT22;12204;50.600;4.608;2023-06-14T01:47:22;26.70;44.20
22416;DHT22;12204;50.600;4.608;2023-06-14T01:52:25;26.60;43.90
22416;DHT22;12204;50.600;4.608;2023-06-14T01:57:31;26.60;43.80
22416;DHT22;12204;50.600;4.608;2023-06-14T02:02:34;26.60;44.10
22416;DHT22;12204;50.600;4.608;2023-06-14T02:07:38;26.50;44.40
22416;DHT22;12204;50.600;4.608;2023-06-14T02:12:43;26.50;44.10
22416;DHT22;12204;50.600;4.608;2023-06-14T02:17:46;26.40;44.00
22416;DHT22;12204;50.600;4.608;2023-06-14T02:22:51;26.40;44.10
22416;DHT22;12204;50.600;4.608;2023-06-14T02:27:56;26.40;44.00
22416;DHT22;12204;50.600;4.608;2023-06-14T02:32:59;26.30;44.00
22416;DHT22;12204;50.600;4.608;2023-06-14T02:38:03;26.30;44.20
22416;DHT22;12204;50.600;4.608;2023-06-14T02:43:08;26.20;44.10
22416;DHT22;12204;50.600;4.608;2023-06-14T02:48:13;26.20;44.20
22416;DHT22;12204;50.600;4.608;2023-06-14T02:53:17;26.20;44.20
22416;DHT22;12204;50.600;4.608;2023-06-14T02:58:22;26.10;44.00
22416;DHT22;12204;50.600;4.608;2023-06-14T03:03:27;26.10;44.20
22416;DHT22;12204;50.600;4.608;2023-06-14T03:08:32;26.10;44.60
22416;DHT22;12204;50.600;4.608;2023-06-14T03:13:46;26.00;44.30
22416;DHT22;12204;50.600;4.608;2023-06-14T03:18:51;25.90;44.10
22416;DHT22;12204;50.600;4.608;2023-06-14T03:23:55;25.90;44.40
22416;DHT22;12204;50.600;4.608;2023-06-14T03:29:01;25.90;44.20
22416;DHT22;12204;50.600;4.608;2023-06-14T03:34:05;25.90;44.20
22416;DHT22;12204;50.600;4.608;2023-06-14T03:39:09;25.80;44.60
22416;DHT22;12204;50.600;4.608;2023-06-14T03:44:16;25.80;44.90
22416;DHT22;12204;50.600;4.608;2023-06-14T03:49:21;25.80;44.70
22416;DHT22;12204;50.600;4.608;2023-06-14T03:54:24;25.70;44.50
22416;DHT22;12204;50.600;4.608;2023-06-14T03:59:50;25.70;44.80
22416;DHT22;12204;50.600;4.608;2023-06-14T04:04:54;25.70;45.10
22416;DHT22;12204;50.600;4.608;2023-06-14T04:09:58;25.60;45.10
22416;DHT22;12204;50.600;4.608;2023-06-14T04:15:03;25.60;45.10
22416;DHT22;12204;50.600;4.608;2023-06-14T04:20:22;25.60;45.30
22416;DHT22;12204;50.600;4.608;2023-06-14T04:25:26;25.50;45.30
22416;DHT22;12204;50.600;4.608;2023-06-14T04:30:31;25.50;45.60
22416;DHT22;12204;50.600;4.608;2023-06-14T04:35:35;25.50;45.60
22416;DHT22;12204;50.600;4.608;2023-06-14T04:40:39;25.50;45.80
22416;DHT22;12204;50.600;4.608;2023-06-14T04:45:48;25.50;46.10
22416;DHT22;12204;50.600;4.608;2023-06-14T04:50:52;25.50;46.20
22416;DHT22;12204;50.600;4.608;2023-06-14T04:55:55;25.50;46.50
22416;DHT22;12204;50.600;4.608;2023-06-14T05:01:01;25.40;46.60
22416;DHT22;12204;50.600;4.608;2023-06-14T05:06:05;25.40;46.70
22416;DHT22;12204;50.600;4.608;2023-06-14T05:11:09;25.40;47.10
22416;DHT22;12204;50.600;4.608;2023-06-14T05:16:15;25.40;47.20
22416;DHT22;12204;50.600;4.608;2023-06-14T05:21:21;25.40;47.20
22416;DHT22;12204;50.600;4.608;2023-06-14T05:26:24;25.40;47.20
22416;DHT22;12204;50.600;4.608;2023-06-14T05:31:31;25.40;47.30
22416;DHT22;12204;50.600;4.608;2023-06-14T05:36:35;25.40;47.40
22416;DHT22;12204;50.600;4.608;2023-06-14T05:41:39;25.40;47.60
22416;DHT22;12204;50.600;4.608;2023-06-14T05:46:44;25.40;47.90
22416;DHT22;12204;50.600;4.608;2023-06-14T05:51:47;25.50;48.20
22416;DHT22;12204;50.600;4.608;2023-06-14T05:56:50;25.50;48.60
22416;DHT22;12204;50.600;4.608;2023-06-14T06:01:55;25.50;48.80
22416;DHT22;12204;50.600;4.608;2023-06-14T06:06:59;25.50;49.00
22416;DHT22;12204;50.600;4.608;2023-06-14T06:12:03;25.50;48.80
22416;DHT22;12204;50.600;4.608;2023-06-14T06:17:10;25.50;48.60
22416;DHT22;12204;50.600;4.608;2023-06-14T06:22:13;25.60;48.50
22416;DHT22;12204;50.600;4.608;2023-06-14T06:27:17;25.60;48.30
22416;DHT22;12204;50.600;4.608;2023-06-14T06:32:23;25.60;48.30
22416;DHT22;12204;50.600;4.608;2023-06-14T06:37:27;25.70;48.60
22416;DHT22;12204;50.600;4.608;2023-06-14T06:42:30;25.60;48.30
22416;DHT22;12204;50.600;4.608;2023-06-14T06:47:38;25.70;48.30
22416;DHT22;12204;50.600;4.608;2023-06-14T06:52:42;25.70;48.30
22416;DHT22;12204;50.600;4.608;2023-06-14T06:57:47;25.70;48.40
22416;DHT22;12204;50.600;4.608;2023-06-14T07:02:53;25.70;48.80
22416;DHT22;12204;50.600;4.608;2023-06-14T07:07:57;25.70;49.00
22416;DHT22;12204;50.600;4.608;2023-06-14T07:13:01;25.70;49.20
22416;DHT22;12204;50.600;4.608;2023-06-14T07:18:07;25.80;49.70
22416;DHT22;12204;50.600;4.608;2023-06-14T07:23:10;25.80;49.90
22416;DHT22;12204;50.600;4.608;2023-06-14T07:28:14;25.90;50.20
22416;DHT22;12204;50.600;4.608;2023-06-14T07:33:21;25.90;50.30
22416;DHT22;12204;50.600;4.608;2023-06-14T07:38:24;25.90;50.30
22416;DHT22;12204;50.600;4.608;2023-06-14T07:43:28;25.90;50.30
22416;DHT22;12204;50.600;4.608;2023-06-14T07:48:33;25.90;50.30
22416;DHT22;12204;50.600;4.608;2023-06-14T07:53:37;25.90;50.20
22416;DHT22;12204;50.600;4.608;2023-06-14T07:58:40;26.00;50.40
22416;DHT22;12204;50.600;4.608;2023-06-14T08:03:45;26.00;50.30
22416;DHT22;12204;50.600;4.608;2023-06-14T08:08:48;26.00;50.40
22416;DHT22;12204;50.600;4.608;2023-06-14T08:13:52;26.00;50.30
22416;DHT22;12204;50.600;4.608;2023-06-14T08:18:57;26.10;50.30
22416;DHT22;12204;50.600;4.608;2023-06-14T08:24:00;26.10;50.30
22416;DHT22;12204;50.600;4.608;2023-06-14T08:29:04;26.10;50.40
22416;DHT22;12204;50.600;4.608;2023-06-14T08:34:09;26.10;50.30
22416;DHT22;12204;50.600;4.608;2023-06-14T08:39:13;26.10;50.30
22416;DHT22;12204;50.600;4.608;2023-06-14T08:44:16;26.20;50.70
22416;DHT22;12204;50.600;4.608;2023-06-14T08:49:21;26.20;50.70
22416;DHT22;12204;50.600;4.608;2023-06-14T08:54:26;26.20;50.80
22416;DHT22;12204;50.600;4.608;2023-06-14T08:59:32;26.30;51.60
22416;DHT22;12204;50.600;4.608;2023-06-14T09:04:42;26.30;51.00
22416;DHT22;12204;50.600;4.608;2023-06-14T09:09:46;26.30;51.00
22416;DHT22;12204;50.600;4.608;2023-06-14T09:15:07;26.30;51.00
22416;DHT22;12204;50.600;4.608;2023-06-14T09:20:13;26.30;50.90
22416;DHT22;12204;50.600;4.608;2023-06-14T09:25:20;26.40;50.90
22416;DHT22;12204;50.600;4.608;2023-06-14T09:30:40;26.40;51.00
22416;DHT22;12204;50.600;4.608;2023-06-14T09:35:50;26.40;51.20
22416;DHT22;12204;50.600;4.608;2023-06-14T09:40:56;26.50;51.80
22416;DHT22;12204;50.600;4.608;2023-06-14T09:46:01;26.50;51.50
22416;DHT22;12204;50.600;4.608;2023-06-14T09:51:06;26.70;51.90
22416;DHT22;12204;50.600;4.608;2023-06-14T09:56:10;26.90;51.90
22416;DHT22;12204;50.600;4.608;2023-06-14T10:01:15;26.90;51.40
22416;DHT22;12204;50.600;4.608;2023-06-14T10:06:22;26.80;51.00
22416;DHT22;12204;50.600;4.608;2023-06-14T10:11:28;26.80;51.20
22416;DHT22;12204;50.600;4.608;2023-06-14T10:16:34;26.80;51.40
22416;DHT22;12204;50.600;4.608;2023-06-14T10:21:49;26.80;52.10
22416;DHT22;12204;50.600;4.608;2023-06-14T10:26:59;26.80;51.80
22416;DHT22;12204;50.600;4.608;2023-06-14T10:32:04;26.80;51.90
22416;DHT22;12204;50.600;4.608;2023-06-14T10:37:13;26.80;52.30
22416;DHT22;12204;50.600;4.608;2023-06-14T10:42:17;26.80;52.50
22416;DHT22;12204;50.600;4.608;2023-06-14T10:47:26;26.80;52.30
22416;DHT22;12204;50.600;4.608;2023-06-14T10:52:35;26.80;52.50
22416;DHT22;12204;50.600;4.608;2023-06-14T10:57:46;26.80;52.20
22416;DHT22;12204;50.600;4.608;2023-06-14T11:03:20;26.80;52.50
22416;DHT22;12204;50.600;4.608;2023-06-14T11:14:46;25.90;52.00
22416;DHT22;12204;50.600;4.608;2023-06-14T11:19:50;24.70;51.90
22416;DHT22;12204;50.600;4.608;2023-06-14T11:24:55;24.30;51.70
22416;DHT22;12204;50.600;4.608;2023-06-14T11:29:59;24.20;51.70
22416;DHT22;12204;50.600;4.608;2023-06-14T11:35:03;24.10;51.20
22416;DHT22;12204;50.600;4.608;2023-06-14T11:40:11;24.80;54.20
22416;DHT22;12204;50.600;4.608;2023-06-14T11:45:15;24.60;51.70
22416;DHT22;12204;50.600;4.608;2023-06-14T11:50:19;25.00;53.50
22416;DHT22;12204;50.600;4.608;2023-06-14T11:55:26;24.80;53.30
22416;DHT22;12204;50.600;4.608;2023-06-14T12:00:30;24.90;53.70
22416;DHT22;12204;50.600;4.608;2023-06-14T12:05:33;25.00;56.40
22416;DHT22;12204;50.600;4.608;2023-06-14T12:10:41;24.80;55.50
22416;DHT22;12204;50.600;4.608;2023-06-14T12:15:54;25.20;57.80
22416;DHT22;12204;50.600;4.608;2023-06-14T12:20:59;24.80;55.90
22416;DHT22;12204;50.600;4.608;2023-06-14T12:26:06;25.20;57.20
22416;DHT22;12204;50.600;4.608;2023-06-14T12:31:13;24.90;56.10
22416;DHT22;12204;50.600;4.608;2023-06-14T12:36:19;25.00;56.00
22416;DHT22;12204;50.600;4.608;2023-06-14T12:41:24;25.00;56.90
22416;DHT22;12204;50.600;4.608;2023-06-14T12:46:29;24.90;55.20
22416;DHT22;12204;50.600;4.608;2023-06-14T12:51:33;25.20;57.40
22416;DHT22;12204;50.600;4.608;2023-06-14T12:56:38;24.80;54.60
22416;DHT22;12204;50.600;4.608;2023-06-14T13:01:43;25.20;56.20
22416;DHT22;12204;50.600;4.608;2023-06-14T13:06:49;24.80;55.30
22416;DHT22;12204;50.600;4.608;2023-06-14T13:11:54;25.00;55.20
22416;DHT22;12204;50.600;4.608;2023-06-14T13:16:57;25.00;56.10
22416;DHT22;12204;50.600;4.608;2023-06-14T13:22:01;25.00;54.70
22416;DHT22;12204;50.600;4.608;2023-06-14T13:27:07;25.20;56.90
22416;DHT22;12204;50.600;4.608;2023-06-14T13:32:10;24.90;54.30
22416;DHT22;12204;50.600;4.608;2023-06-14T13:37:14;25.30;56.50
22416;DHT22;12204;50.600;4.608;2023-06-14T13:42:19;24.80;53.80
22416;DHT22;12204;50.600;4.608;2023-06-14T13:47:22;25.20;55.10
22416;DHT22;12204;50.600;4.608;2023-06-14T13:52:26;25.00;55.30
22416;DHT22;12204;50.600;4.608;2023-06-14T13:57:31;25.10;54.20
22416;DHT22;12204;50.600;4.608;2023-06-14T14:02:34;25.20;56.00
22416;DHT22;12204;50.600;4.608;2023-06-14T14:07:38;25.10;53.70
22416;DHT22;12204;50.600;4.608;2023-06-14T14:12:43;25.30;56.00
22416;DHT22;12204;50.600;4.608;2023-06-14T14:17:50;25.10;53.40
22416;DHT22;12204;50.600;4.608;2023-06-14T14:22:56;25.30;55.00
22416;DHT22;12204;50.600;4.608;2023-06-14T14:28:01;25.30;55.10
22416;DHT22;12204;50.600;4.608;2023-06-14T14:33:04;25.80;57.30
22416;DHT22;12204;50.600;4.608;2023-06-14T14:38:08;25.50;54.10
22416;DHT22;12204;50.600;4.608;2023-06-14T14:43:13;25.30;53.20
22416;DHT22;12204;50.600;4.608;2023-06-14T14:48:17;25.20;52.70
22416;DHT22;12204;50.600;4.608;2023-06-14T14:53:20;25.20;52.20
22416;DHT22;12204;50.600;4.608;2023-06-14T14:58:25;25.20;51.70
22416;DHT22;12204;50.600;4.608;2023-06-14T15:03:29;25.20;51.20
22416;DHT22;12204;50.600;4.608;2023-06-14T15:08:43;25.20;51.00
22416;DHT22;12204;50.600;4.608;2023-06-14T15:13:48;25.20;50.70
22416;DHT22;12204;50.600;4.608;2023-06-14T15:18:52;25.20;50.50
22416;DHT22;12204;50.600;4.608;2023-06-14T15:23:55;25.20;50.30
22416;DHT22;12204;50.600;4.608;2023-06-14T15:29:01;25.20;50.10
22416;DHT22;12204;50.600;4.608;2023-06-14T15:34:05;25.30;50.00
22416;DHT22;12204;50.600;4.608;2023-06-14T15:39:08;25.30;50.00
22416;DHT22;12204;50.600;4.608;2023-06-14T15:44:13;25.50;49.60
22416;DHT22;12204;50.600;4.608;2023-06-14T15:49:17;25.60;49.40
22416;DHT22;12204;50.600;4.608;2023-06-14T15:54:21;25.80;49.50
22416;DHT22;12204;50.600;4.608;2023-06-14T15:59:25;25.90;49.70
22416;DHT22;12204;50.600;4.608;2023-06-14T16:04:30;25.90;49.60
22416;DHT22;12204;50.600;4.608;2023-06-14T16:09:33;25.80;49.90
22416;DHT22;12204;50.600;4.608;2023-06-14T16:14:38;25.80;50.10
22416;DHT22;12204;50.600;4.608;2023-06-14T16:19:42;25.80;49.90
22416;DHT22;12204;50.600;4.608;2023-06-14T16:24:45;25.80;49.60
22416;DHT22;12204;50.600;4.608;2023-06-14T16:29:50;25.80;49.60
22416;DHT22;12204;50.600;4.608;2023-06-14T16:34:53;25.90;49.60
22416;DHT22;12204;50.600;4.608;2023-06-14T16:39:57;25.90;49.50
22416;DHT22;12204;50.600;4.608;2023-06-14T16:45:02;25.90;49.30
22416;DHT22;12204;50.600;4.608;2023-06-14T16:50:07;25.90;49.20
22416;DHT22;12204;50.600;4.608;2023-06-14T16:55:11;25.90;49.40
22416;DHT22;12204;50.600;4.608;2023-06-14T17:00:17;25.90;50.40
22416;DHT22;12204;50.600;4.608;2023-06-14T17:05:22;25.90;50.50
22416;DHT22;12204;50.600;4.608;2023-06-14T17:10:25;26.00;50.60
22416;DHT22;12204;50.600;4.608;2023-06-14T17:15:30;26.00;50.50
22416;DHT22;12204;50.600;4.608;2023-06-14T17:20:34;26.10;50.30
22416;DHT22;12204;50.600;4.608;2023-06-14T17:25:37;26.10;50.10
22416;DHT22;12204;50.600;4.608;2023-06-14T17:30:42;26.10;49.90
22416;DHT22;12204;50.600;4.608;2023-06-14T17:35:48;26.10;49.60
22416;DHT22;12204;50.600;4.608;2023-06-14T17:40:52;26.10;49.50
22416;DHT22;12204;50.600;4.608;2023-06-14T17:45:57;26.20;49.30
22416;DHT22;12204;50.600;4.608;2023-06-14T17:51:00;26.20;49.20
22416;DHT22;12204;50.600;4.608;2023-06-14T17:56:04;26.20;49.00
22416;DHT22;12204;50.600;4.608;2023-06-14T18:01:09;26.20;48.70
22416;DHT22;12204;50.600;4.608;2023-06-14T18:06:12;26.20;48.70
22416;DHT22;12204;50.600;4.608;2023-06-14T18:11:16;26.20;48.60
22416;DHT22;12204;50.600;4.608;2023-06-14T18:16:21;26.30;48.70
22416;DHT22;12204;50.600;4.608;2023-06-14T18:21:24;26.30;48.70
22416;DHT22;12204;50.600;4.608;2023-06-14T18:26:28;26.30;48.50
22416;DHT22;12204;50.600;4.608;2023-06-14T18:31:33;26.30;48.40
22416;DHT22;12204;50.600;4.608;2023-06-14T18:36:36;26.30;48.40
22416;DHT22;12204;50.600;4.608;2023-06-14T18:41:40;26.30;48.50
22416;DHT22;12204;50.600;4.608;2023-06-14T18:46:45;26.20;48.50
22416;DHT22;12204;50.600;4.608;2023-06-14T18:51:49;26.20;48.50
22416;DHT22;12204;50.600;4.608;2023-06-14T18:56:52;26.20;48.60
22416;DHT22;12204;50.600;4.608;2023-06-14T19:01:57;26.20;48.70
22416;DHT22;12204;50.600;4.608;2023-06-14T19:07:01;26.20;48.80
22416;DHT22;12204;50.600;4.608;2023-06-14T19:12:05;26.20;48.50
22416;DHT22;12204;50.600;4.608;2023-06-14T19:17:14;26.20;48.70
22416;DHT22;12204;50.600;4.608;2023-06-14T19:22:18;26.10;48.90
22416;DHT22;12204;50.600;4.608;2023-06-14T19:27:21;26.20;49.20
22416;DHT22;12204;50.600;4.608;2023-06-14T19:32:26;26.20;49.10
22416;DHT22;12204;50.600;4.608;2023-06-14T19:37:30;26.20;49.40
22416;DHT22;12204;50.600;4.608;2023-06-14T19:48:14;26.90;46.80
22416;DHT22;12204;50.600;4.608;2023-06-14T19:53:22;27.20;45.70
22416;DHT22;12204;50.600;4.608;2023-06-14T19:58:25;27.30;45.00
22416;DHT22;12204;50.600;4.608;2023-06-14T20:03:30;27.40;44.90
22416;DHT22;12204;50.600;4.608;2023-06-14T20:08:34;27.40;43.80
22416;DHT22;12204;50.600;4.608;2023-06-14T20:13:38;27.40;44.00
22416;DHT22;12204;50.600;4.608;2023-06-14T20:18:43;27.50;43.90
22416;DHT22;12204;50.600;4.608;2023-06-14T20:23:47;27.50;43.90
22416;DHT22;12204;50.600;4.608;2023-06-14T20:28:50;27.50;44.20
22416;DHT22;12204;50.600;4.608;2023-06-14T20:33:56;27.50;43.70
22416;DHT22;12204;50.600;4.608;2023-06-14T20:38:59;27.50;43.20
22416;DHT22;12204;50.600;4.608;2023-06-14T20:44:04;27.40;43.70
22416;DHT22;12204;50.600;4.608;2023-06-14T20:49:09;27.40;43.70
22416;DHT22;12204;50.600;4.608;2023-06-14T20:54:13;27.30;43.70
22416;DHT22;12204;50.600;4.608;2023-06-14T20:59:16;27.30;43.80
22416;DHT22;12204;50.600;4.608;2023-06-14T21:04:21;27.30;43.90
22416;DHT22;12204;50.600;4.608;2023-06-14T21:09:25;27.20;44.10
22416;DHT22;12204;50.600;4.608;2023-06-14T21:14:28;27.20;44.20
22416;DHT22;12204;50.600;4.608;2023-06-14T21:19:33;27.10;44.20
22416;DHT22;12204;50.600;4.608;2023-06-14T21:24:39;27.10;44.50
22416;DHT22;12204;50.600;4.608;2023-06-14T21:29:42;27.10;44.60
22416;DHT22;12204;50.600;4.608;2023-06-14T21:34:48;27.10;44.40
22416;DHT22;12204;50.600;4.608;2023-06-14T21:39:51;27.00;44.90
22416;DHT22;12204;50.600;4.608;2023-06-14T21:44:55;26.90;44.40
22416;DHT22;12204;50.600;4.608;2023-06-14T21:50:00;26.90;44.70
22416;DHT22;12204;50.600;4.608;2023-06-14T21:55:04;26.80;45.00
22416;DHT22;12204;50.600;4.608;2023-06-14T22:00:09;26.80;45.20
22416;DHT22;12204;50.600;4.608;2023-06-14T22:05:17;26.70;45.30
22416;DHT22;12204;50.600;4.608;2023-06-14T22:10:21;26.70;45.80
22416;DHT22;12204;50.600;4.608;2023-06-14T22:15:24;26.90;45.90
22416;DHT22;12204;50.600;4.608;2023-06-14T22:20:30;26.80;45.00
22416;DHT22;12204;50.600;4.608;2023-06-14T22:25:34;26.70;45.00
22416;DHT22;12204;50.600;4.608;2023-06-14T22:30:38;26.70;45.00
22416;DHT22;12204;50.600;4.608;2023-06-14T22:35:47;26.60;45.30
22416;DHT22;12204;50.600;4.608;2023-06-14T22:40:51;26.60;45.40
22416;DHT22;12204;50.600;4.608;2023-06-14T22:45:54;26.50;45.40
22416;DHT22;12204;50.600;4.608;2023-06-14T22:51:00;26.50;45.40
22416;DHT22;12204;50.600;4.608;2023-06-14T22:56:05;26.40;45.30
22416;DHT22;12204;50.600;4.608;2023-06-14T23:01:11;26.40;45.50
22416;DHT22;12204;50.600;4.608;2023-06-14T23:06:18;26.40;45.50
22416;DHT22;12204;50.600;4.608;2023-06-14T23:11:26;26.30;46.20
22416;DHT22;12204;50.600;4.608;2023-06-14T23:16:30;26.30;45.70
22416;DHT22;12204;50.600;4.608;2023-06-14T23:21:38;26.20;45.90
22416;DHT22;12204;50.600;4.608;2023-06-14T23:26:42;26.20;45.90
22416;DHT22;12204;50.600;4.608;2023-06-14T23:31:47;26.20;45.80
22416;DHT22;12204;50.600;4.608;2023-06-14T23:36:52;26.10;45.70
22416;DHT22;12204;50.600;4.608;2023-06-14T23:41:56;26.00;45.80
22416;DHT22;12204;50.600;4.608;2023-06-14T23:46:59;26.00;45.90
22416;DHT22;12204;50.600;4.608;2023-06-14T23:52:08;25.90;45.90
22416;DHT22;12204;50.600;4.608;2023-06-14T23:57:12;25.90;46.00
